sensor_id;sensor_type;location;lat;lon;timestamp;temperature;humidity
3713;DHT22;1872;51.406;6.856;2023-10-19T00:02:08;11.80;99.90
3713;DHT22;1872;51.406;6.856;2023-10-19T00:04:34;11.80;99.90
3713;DHT22;1872;51.406;6.856;2023-10-19T00:07:02;11.90;99.90
3713;DHT22;1872;51.406;6.856;2023-10-19T00:09:30;11.90;99.90
3713;DHT22;1872;51.406;6.856;2023-10-19T00:12:03;11.90;99.90
3713;DHT22;1872;51.406;6.856;2023-10-19T00:14:28;11.90;99.90
3713;DHT22;1872;51.406;6.856;2023-10-19T00:16:54;12.00;99.90
3713;DHT22;1872;51.406;6.856;2023-10-19T00:19:26;12.00;99.90
3713;DHT22;1872;51.406;6.856;2023-10-19T00:21:54;12.00;99.90
3713;DHT22;1872;51.406;6.856;2023-10-19T00:24:34;12.00;99.90
3713;DHT22;1872;51.406;6.856;2023-10-19T00:27:01;12.00;99.90
3713;DHT22;1872;51.406;6.856;2023-10-19T00:29:31;12.10;99.90
3713;DHT22;1872;51.406;6.856;2023-10-19T00:31:59;12.10;99.90
3713;DHT22;1872;51.406;6.856;2023-10-19T00:34:29;12.10;99.90
3713;DHT22;1872;51.406;6.856;2023-10-19T00:36:55;12.10;99.90
3713;DHT22;1872;51.406;6.856;2023-10-19T00:39:35;12.20;99.90
3713;DHT22;1872;51.406;6.856;2023-10-19T00:42:16;12.20;99.90
3713;DHT22;1872;51.406;6.856;2023-10-19T00:44:45;12.20;99.90
3713;DHT22;1872;51.406;6.856;2023-10-19T00:47:15;12.20;99.90
3713;DHT22;1872;51.406;6.856;2023-10-19T00:49:48;12.30;99.90
3713;DHT22;1872;51.406;6.856;2023-10-19T00:52:14;12.30;99.90
3713;DHT22;1872;51.406;6.856;2023-10-19T00:54:50;12.30;99.90
3713;DHT22;1872;51.406;6.856;2023-10-19T00:57:18;12.30;99.90
3713;DHT22;1872;51.406;6.856;2023-10-19T01:00:05;12.30;99.90
3713;DHT22;1872;51.406;6.856;2023-10-19T01:02:40;12.30;99.90
3713;DHT22;1872;51.406;6.856;2023-10-19T01:05:12;12.40;99.90
3713;DHT22;1872;51.406;6.856;2023-10-19T01:07:40;12.40;99.90
3713;DHT22;1872;51.406;6.856;2023-10-19T01:10:08;12.40;99.90
3713;DHT22;1872;51.406;6.856;2023-10-19T01:12:34;12.40;99.90
3713;DHT22;1872;51.406;6.856;2023-10-19T01:15:16;12.40;99.90
3713;DHT22;1872;51.406;6.856;2023-10-19T01:17:44;12.40;99.90
3713;DHT22;1872;51.406;6.856;2023-10-19T01:20:16;12.40;99.90
3713;DHT22;1872;51.406;6.856;2023-10-19T01:23:07;12.40;99.90
3713;DHT22;1872;51.406;6.856;2023-10-19T01:28:20;12.50;99.90
3713;DHT22;1872;51.406;6.856;2023-10-19T01:30:50;12.50;99.90
3713;DHT22;1872;51.406;6.856;2023-10-19T01:33:18;12.50;99.90
3713;DHT22;1872;51.406;6.856;2023-10-19T01:35:44;12.50;99.90
3713;DHT22;1872;51.406;6.856;2023-10-19T01:38:29;12.50;99.90
3713;DHT22;1872;51.406;6.856;2023-10-19T01:41:01;12.50;99.90
3713;DHT22;1872;51.406;6.856;2023-10-19T01:43:28;12.50;99.90
3713;DHT22;1872;51.406;6.856;2023-10-19T01:45:57;12.50;99.90
3713;DHT22;1872;51.406;6.856;2023-10-19T01:48:23;12.50;99.90
3713;DHT22;1872;51.406;6.856;2023-10-19T01:50:58;12.60;99.90
3713;DHT22;1872;51.406;6.856;2023-10-19T01:53:24;12.60;99.90
3713;DHT22;1872;51.406;6.856;2023-10-19T01:55:50;12.60;99.90
3713;DHT22;1872;51.406;6.856;2023-10-19T01:58:24;12.60;99.90
3713;DHT22;1872;51.406;6.856;2023-10-19T02:00:53;12.60;99.90
3713;DHT22;1872;51.406;6.856;2023-10-19T02:03:26;12.70;99.90
3713;DHT22;1872;51.406;6.856;2023-10-19T02:06:00;12.70;99.90
3713;DHT22;1872;51.406;6.856;2023-10-19T02:08:27;12.70;99.90
3713;DHT22;1872;51.406;6.856;2023-10-19T02:10:53;12.70;99.90
3713;DHT22;1872;51.406;6.856;2023-10-19T02:13:22;12.70;99.90
3713;DHT22;1872;51.406;6.856;2023-10-19T02:15:48;12.70;99.90
3713;DHT22;1872;51.406;6.856;2023-10-19T02:18:14;12.80;99.90
3713;DHT22;1872;51.406;6.856;2023-10-19T02:20:40;12.80;99.90
3713;DHT22;1872;51.406;6.856;2023-10-19T02:23:07;12.80;99.90
3713;DHT22;1872;51.406;6.856;2023-10-19T02:25:33;12.80;99.90
3713;DHT22;1872;51.406;6.856;2023-10-19T02:28:05;12.80;99.90
3713;DHT22;1872;51.406;6.856;2023-10-19T02:30:35;12.80;99.90
3713;DHT22;1872;51.406;6.856;2023-10-19T02:33:01;12.80;99.90
3713;DHT22;1872;51.406;6.856;2023-10-19T02:35:29;12.80;99.90
3713;DHT22;1872;51.406;6.856;2023-10-19T02:37:55;12.90;99.90
3713;DHT22;1872;51.406;6.856;2023-10-19T02:40:21;12.90;99.90
3713;DHT22;1872;51.406;6.856;2023-10-19T02:42:49;12.90;99.90
3713;DHT22;1872;51.406;6.856;2023-10-19T02:45:19;12.90;99.90
3713;DHT22;1872;51.406;6.856;2023-10-19T02:47:45;12.90;99.90
3713;DHT22;1872;51.406;6.856;2023-10-19T02:50:12;12.90;99.90
3713;DHT22;1872;51.406;6.856;2023-10-19T02:52:48;12.90;99.90
3713;DHT22;1872;51.406;6.856;2023-10-19T02:55:14;12.90;99.90
3713;DHT22;1872;51.406;6.856;2023-10-19T02:57:42;13.00;99.90
3713;DHT22;1872;51.406;6.856;2023-10-19T03:00:12;13.00;99.90
3713;DHT22;1872;51.406;6.856;2023-10-19T03:02:40;13.00;99.90
3713;DHT22;1872;51.406;6.856;2023-10-19T03:05:06;13.00;99.90
3713;DHT22;1872;51.406;6.856;2023-10-19T03:07:40;13.00;99.90
3713;DHT22;1872;51.406;6.856;2023-10-19T03:10:09;13.00;99.90
3713;DHT22;1872;51.406;6.856;2023-10-19T03:12:48;13.00;99.90
3713;DHT22;1872;51.406;6.856;2023-10-19T03:15:15;13.00;99.90
3713;DHT22;1872;51.406;6.856;2023-10-19T03:17:41;13.00;99.90
3713;DHT22;1872;51.406;6.856;2023-10-19T03:20:07;13.00;99.90
3713;DHT22;1872;51.406;6.856;2023-10-19T03:22:32;13.00;99.90
3713;DHT22;1872;51.406;6.856;2023-10-19T03:25:00;13.10;99.90
3713;DHT22;1872;51.406;6.856;2023-10-19T03:27:45;13.10;99.90
3713;DHT22;1872;51.406;6.856;2023-10-19T03:30:11;13.10;99.90
3713;DHT22;1872;51.406;6.856;2023-10-19T03:32:41;13.10;99.90
3713;DHT22;1872;51.406;6.856;2023-10-19T03:35:07;13.10;99.90
3713;DHT22;1872;51.406;6.856;2023-10-19T03:37:33;13.10;99.90
3713;DHT22;1872;51.406;6.856;2023-10-19T03:40:00;13.10;99.90
3713;DHT22;1872;51.406;6.856;2023-10-19T03:42:32;13.10;99.90
3713;DHT22;1872;51.406;6.856;2023-10-19T03:44:59;13.10;99.90
3713;DHT22;1872;51.406;6.856;2023-10-19T03:47:27;13.10;99.90
3713;DHT22;1872;51.406;6.856;2023-10-19T03:50:01;13.10;99.90
3713;DHT22;1872;51.406;6.856;2023-10-19T03:52:31;13.20;99.90
3713;DHT22;1872;51.406;6.856;2023-10-19T03:54:57;13.20;99.90
3713;DHT22;1872;51.406;6.856;2023-10-19T03:57:23;13.20;99.90
3713;DHT22;1872;51.406;6.856;2023-10-19T03:59:51;13.20;99.90
3713;DHT22;1872;51.406;6.856;2023-10-19T04:02:24;13.20;99.90
3713;DHT22;1872;51.406;6.856;2023-10-19T04:04:50;13.20;99.90
3713;DHT22;1872;51.406;6.856;2023-10-19T04:07:20;13.20;99.90
3713;DHT22;1872;51.406;6.856;2023-10-19T04:09:56;13.20;99.90
3713;DHT22;1872;51.406;6.856;2023-10-19T04:12:35;13.20;99.90
3713;DHT22;1872;51.406;6.856;2023-10-19T04:15:03;13.20;99.90
3713;DHT22;1872;51.406;6.856;2023-10-19T04:17:46;13.20;99.90
3713;DHT22;1872;51.406;6.856;2023-10-19T04:20:18;13.30;99.90
3713;DHT22;1872;51.406;6.856;2023-10-19T04:22:44;13.20;99.90
3713;DHT22;1872;51.406;6.856;2023-10-19T04:25:10;13.20;99.90
3713;DHT22;1872;51.406;6.856;2023-10-19T04:27:39;13.20;99.90
3713;DHT22;1872;51.406;6.856;2023-10-19T04:30:08;13.20;99.90
3713;DHT22;1872;51.406;6.856;2023-10-19T04:32:50;13.20;99.90
3713;DHT22;1872;51.406;6.856;2023-10-19T04:35:16;13.20;99.90
3713;DHT22;1872;51.406;6.856;2023-10-19T04:37:52;13.20;99.90
3713;DHT22;1872;51.406;6.856;2023-10-19T04:40:22;13.20;99.90
3713;DHT22;1872;51.406;6.856;2023-10-19T04:42:51;13.20;99.90
3713;DHT22;1872;51.406;6.856;2023-10-19T04:45:17;13.20;99.90
3713;DHT22;1872;51.406;6.856;2023-10-19T04:47:43;13.20;99.90
3713;DHT22;1872;51.406;6.856;2023-10-19T04:50:09;13.20;99.90
3713;DHT22;1872;51.406;6.856;2023-10-19T04:52:38;13.20;99.90
3713;DHT22;1872;51.406;6.856;2023-10-19T04:55:05;13.30;99.90
3713;DHT22;1872;51.406;6.856;2023-10-19T04:57:31;13.30;99.90
3713;DHT22;1872;51.406;6.856;2023-10-19T04:59:57;13.30;99.90
3713;DHT22;1872;51.406;6.856;2023-10-19T05:02:23;13.30;99.90
3713;DHT22;1872;51.406;6.856;2023-10-19T05:04:49;13.20;99.90
3713;DHT22;1872;51.406;6.856;2023-10-19T05:07:16;13.20;99.90
3713;DHT22;1872;51.406;6.856;2023-10-19T05:09:45;13.20;99.90
3713;DHT22;1872;51.406;6.856;2023-10-19T05:12:12;13.20;99.90
3713;DHT22;1872;51.406;6.856;2023-10-19T05:14:43;13.20;99.90
3713;DHT22;1872;51.406;6.856;2023-10-19T05:17:09;13.20;99.90
3713;DHT22;1872;51.406;6.856;2023-10-19T05:19:40;13.20;99.90
3713;DHT22;1872;51.406;6.856;2023-10-19T05:22:07;13.20;99.90
3713;DHT22;1872;51.406;6.856;2023-10-19T05:24:33;13.20;99.90
3713;DHT22;1872;51.406;6.856;2023-10-19T05:26:58;13.20;99.90
3713;DHT22;1872;51.406;6.856;2023-10-19T05:29:24;13.20;99.90
3713;DHT22;1872;51.406;6.856;2023-10-19T05:31:53;13.20;99.90
3713;DHT22;1872;51.406;6.856;2023-10-19T05:34:23;13.20;99.90
3713;DHT22;1872;51.406;6.856;2023-10-19T05:36:49;13.20;99.90
3713;DHT22;1872;51.406;6.856;2023-10-19T05:39:15;13.20;99.90
3713;DHT22;1872;51.406;6.856;2023-10-19T05:41:41;13.20;99.90
3713;DHT22;1872;51.406;6.856;2023-10-19T05:44:07;13.20;99.90
3713;DHT22;1872;51.406;6.856;2023-10-19T05:46:32;13.20;99.90
3713;DHT22;1872;51.406;6.856;2023-10-19T05:48:58;13.10;99.90
3713;DHT22;1872;51.406;6.856;2023-10-19T05:51:25;13.10;99.90
3713;DHT22;1872;51.406;6.856;2023-10-19T05:53:50;13.10;99.90
3713;DHT22;1872;51.406;6.856;2023-10-19T05:56:16;13.10;99.90
3713;DHT22;1872;51.406;6.856;2023-10-19T05:58:43;13.10;99.90
3713;DHT22;1872;51.406;6.856;2023-10-19T06:01:08;13.10;99.90
3713;DHT22;1872;51.406;6.856;2023-10-19T06:03:34;13.10;99.90
3713;DHT22;1872;51.406;6.856;2023-10-19T06:06:00;13.10;99.90
3713;DHT22;1872;51.406;6.856;2023-10-19T06:08:26;13.10;99.90
3713;DHT22;1872;51.406;6.856;2023-10-19T06:10:53;13.10;99.90
3713;DHT22;1872;51.406;6.856;2023-10-19T06:13:20;13.10;99.90
3713;DHT22;1872;51.406;6.856;2023-10-19T06:15:48;13.10;99.90
3713;DHT22;1872;51.406;6.856;2023-10-19T06:18:14;13.10;99.90
3713;DHT22;1872;51.406;6.856;2023-10-19T06:20:46;13.10;99.90
3713;DHT22;1872;51.406;6.856;2023-10-19T06:23:12;13.10;99.90
3713;DHT22;1872;51.406;6.856;2023-10-19T06:25:38;13.20;99.90
3713;DHT22;1872;51.406;6.856;2023-10-19T06:28:05;13.20;99.90
3713;DHT22;1872;51.406;6.856;2023-10-19T06:30:33;13.20;99.90
3713;DHT22;1872;51.406;6.856;2023-10-19T06:33:00;13.20;99.90
3713;DHT22;1872;51.406;6.856;2023-10-19T06:35:27;13.20;99.90
3713;DHT22;1872;51.406;6.856;2023-10-19T06:37:53;13.20;99.90
3713;DHT22;1872;51.406;6.856;2023-10-19T06:40:21;13.20;99.90
3713;DHT22;1872;51.406;6.856;2023-10-19T06:42:49;13.30;99.90
3713;DHT22;1872;51.406;6.856;2023-10-19T06:45:17;13.30;99.90
3713;DHT22;1872;51.406;6.856;2023-10-19T06:47:46;13.30;99.90
3713;DHT22;1872;51.406;6.856;2023-10-19T06:50:13;13.30;99.90
3713;DHT22;1872;51.406;6.856;2023-10-19T06:52:42;13.30;99.90
3713;DHT22;1872;51.406;6.856;2023-10-19T06:55:09;13.30;99.90
3713;DHT22;1872;51.406;6.856;2023-10-19T06:57:42;13.40;99.90
3713;DHT22;1872;51.406;6.856;2023-10-19T07:00:16;13.40;99.90
3713;DHT22;1872;51.406;6.856;2023-10-19T07:02:48;13.40;99.90
3713;DHT22;1872;51.406;6.856;2023-10-19T07:05:14;13.40;99.90
3713;DHT22;1872;51.406;6.856;2023-10-19T07:07:45;13.40;99.90
3713;DHT22;1872;51.406;6.856;2023-10-19T07:10:12;13.50;99.90
3713;DHT22;1872;51.406;6.856;2023-10-19T07:12:39;13.50;99.90
3713;DHT22;1872;51.406;6.856;2023-10-19T07:15:06;13.50;99.90
3713;DHT22;1872;51.406;6.856;2023-10-19T07:17:42;13.50;99.90
3713;DHT22;1872;51.406;6.856;2023-10-19T07:20:09;13.60;99.90
3713;DHT22;1872;51.406;6.856;2023-10-19T07:22:47;13.60;99.90
3713;DHT22;1872;51.406;6.856;2023-10-19T07:25:13;13.60;99.90
3713;DHT22;1872;51.406;6.856;2023-10-19T07:27:39;13.60;99.90
3713;DHT22;1872;51.406;6.856;2023-10-19T07:30:08;13.70;99.90
3713;DHT22;1872;51.406;6.856;2023-10-19T07:32:35;13.70;99.90
3713;DHT22;1872;51.406;6.856;2023-10-19T07:35:01;13.70;99.90
3713;DHT22;1872;51.406;6.856;2023-10-19T07:37:26;13.70;99.90
3713;DHT22;1872;51.406;6.856;2023-10-19T07:39:54;13.70;99.90
3713;DHT22;1872;51.406;6.856;2023-10-19T07:42:23;13.80;99.90
3713;DHT22;1872;51.406;6.856;2023-10-19T07:44:49;13.80;99.90
3713;DHT22;1872;51.406;6.856;2023-10-19T07:47:14;13.80;99.90
3713;DHT22;1872;51.406;6.856;2023-10-19T07:49:40;13.80;99.90
3713;DHT22;1872;51.406;6.856;2023-10-19T07:52:06;13.90;99.90
3713;DHT22;1872;51.406;6.856;2023-10-19T07:54:33;13.90;99.90
3713;DHT22;1872;51.406;6.856;2023-10-19T07:57:04;13.90;99.90
3713;DHT22;1872;51.406;6.856;2023-10-19T07:59:33;13.90;99.90
3713;DHT22;1872;51.406;6.856;2023-10-19T08:01:59;13.90;99.90
3713;DHT22;1872;51.406;6.856;2023-10-19T08:04:28;13.90;99.90
3713;DHT22;1872;51.406;6.856;2023-10-19T08:06:54;14.00;99.90
3713;DHT22;1872;51.406;6.856;2023-10-19T08:09:21;14.00;99.90
3713;DHT22;1872;51.406;6.856;2023-10-19T08:11:49;14.00;99.90
3713;DHT22;1872;51.406;6.856;2023-10-19T08:14:14;14.00;99.90
3713;DHT22;1872;51.406;6.856;2023-10-19T08:16:40;14.10;99.90
3713;DHT22;1872;51.406;6.856;2023-10-19T08:19:07;14.10;99.90
3713;DHT22;1872;51.406;6.856;2023-10-19T08:21:33;14.10;99.90
3713;DHT22;1872;51.406;6.856;2023-10-19T08:24:00;14.20;99.90
3713;DHT22;1872;51.406;6.856;2023-10-19T08:26:30;14.20;99.90
3713;DHT22;1872;51.406;6.856;2023-10-19T08:28:56;14.20;99.90
3713;DHT22;1872;51.406;6.856;2023-10-19T08:31:23;14.30;99.90
3713;DHT22;1872;51.406;6.856;2023-10-19T08:33:49;14.40;99.90
3713;DHT22;1872;51.406;6.856;2023-10-19T08:36:19;14.40;99.90
3713;DHT22;1872;51.406;6.856;2023-10-19T08:38:46;14.50;99.90
3713;DHT22;1872;51.406;6.856;2023-10-19T08:41:14;14.50;99.90
3713;DHT22;1872;51.406;6.856;2023-10-19T08:43:40;14.60;99.90
3713;DHT22;1872;51.406;6.856;2023-10-19T08:46:06;14.60;99.90
3713;DHT22;1872;51.406;6.856;2023-10-19T08:48:36;14.70;99.90
3713;DHT22;1872;51.406;6.856;2023-10-19T08:51:09;14.80;99.90
3713;DHT22;1872;51.406;6.856;2023-10-19T08:53:37;14.80;99.90
3713;DHT22;1872;51.406;6.856;2023-10-19T08:56:08;14.80;99.90
3713;DHT22;1872;51.406;6.856;2023-10-19T08:58:35;14.90;99.90
3713;DHT22;1872;51.406;6.856;2023-10-19T09:01:01;14.90;99.90
3713;DHT22;1872;51.406;6.856;2023-10-19T09:03:35;14.90;99.90
3713;DHT22;1872;51.406;6.856;2023-10-19T09:06:04;14.90;99.90
3713;DHT22;1872;51.406;6.856;2023-10-19T09:08:31;15.00;99.90
3713;DHT22;1872;51.406;6.856;2023-10-19T09:11:10;15.00;99.90
3713;DHT22;1872;51.406;6.856;2023-10-19T09:14:03;15.00;99.90
3713;DHT22;1872;51.406;6.856;2023-10-19T09:16:31;15.10;99.90
3713;DHT22;1872;51.406;6.856;2023-10-19T09:18:57;15.10;99.90
3713;DHT22;1872;51.406;6.856;2023-10-19T09:21:23;15.20;99.90
3713;DHT22;1872;51.406;6.856;2023-10-19T09:23:53;15.30;99.90
3713;DHT22;1872;51.406;6.856;2023-10-19T09:26:20;15.40;99.90
3713;DHT22;1872;51.406;6.856;2023-10-19T09:28:49;15.50;99.90
3713;DHT22;1872;51.406;6.856;2023-10-19T09:31:16;15.60;99.90
3713;DHT22;1872;51.406;6.856;2023-10-19T09:33:44;15.70;99.90
3713;DHT22;1872;51.406;6.856;2023-10-19T09:36:11;15.80;99.90
3713;DHT22;1872;51.406;6.856;2023-10-19T09:41:13;15.90;99.90
3713;DHT22;1872;51.406;6.856;2023-10-19T09:43:44;16.00;99.90
3713;DHT22;1872;51.406;6.856;2023-10-19T09:46:10;16.00;99.90
3713;DHT22;1872;51.406;6.856;2023-10-19T09:48:45;16.10;99.90
3713;DHT22;1872;51.406;6.856;2023-10-19T09:51:12;16.10;99.90
3713;DHT22;1872;51.406;6.856;2023-10-19T09:53:39;16.20;99.90
3713;DHT22;1872;51.406;6.856;2023-10-19T09:56:12;16.30;99.90
3713;DHT22;1872;51.406;6.856;2023-10-19T09:59:00;16.30;99.90
3713;DHT22;1872;51.406;6.856;2023-10-19T10:01:27;16.30;99.90
3713;DHT22;1872;51.406;6.856;2023-10-19T10:03:54;16.30;99.90
3713;DHT22;1872;51.406;6.856;2023-10-19T10:06:30;16.30;99.90
3713;DHT22;1872;51.406;6.856;2023-10-19T10:09:00;16.30;99.90
3713;DHT22;1872;51.406;6.856;2023-10-19T10:11:27;16.30;99.90
3713;DHT22;1872;51.406;6.856;2023-10-19T10:13:55;16.30;99.90
3713;DHT22;1872;51.406;6.856;2023-10-19T10:16:30;16.40;99.90
3713;DHT22;1872;51.406;6.856;2023-10-19T10:18:59;16.40;99.90
3713;DHT22;1872;51.406;6.856;2023-10-19T10:21:28;16.50;99.90
3713;DHT22;1872;51.406;6.856;2023-10-19T10:23:58;16.50;99.90
3713;DHT22;1872;51.406;6.856;2023-10-19T10:26:31;16.50;99.90
3713;DHT22;1872;51.406;6.856;2023-10-19T10:29:23;16.50;99.90
3713;DHT22;1872;51.406;6.856;2023-10-19T10:31:53;16.60;99.90
3713;DHT22;1872;51.406;6.856;2023-10-19T10:37:12;16.70;99.90
3713;DHT22;1872;51.406;6.856;2023-10-19T10:39:40;16.70;99.90
3713;DHT22;1872;51.406;6.856;2023-10-19T10:42:08;16.80;99.90
3713;DHT22;1872;51.406;6.856;2023-10-19T10:44:37;16.80;99.90
3713;DHT22;1872;51.406;6.856;2023-10-19T10:47:16;16.80;99.90
3713;DHT22;1872;51.406;6.856;2023-10-19T10:50:02;16.90;99.90
3713;DHT22;1872;51.406;6.856;2023-10-19T10:52:31;17.00;99.90
3713;DHT22;1872;51.406;6.856;2023-10-19T10:57:33;17.10;99.90
3713;DHT22;1872;51.406;6.856;2023-10-19T11:00:10;17.10;99.90
3713;DHT22;1872;51.406;6.856;2023-10-19T11:02:43;17.10;99.90
3713;DHT22;1872;51.406;6.856;2023-10-19T11:05:13;17.00;99.90
3713;DHT22;1872;51.406;6.856;2023-10-19T11:07:40;17.00;99.90
3713;DHT22;1872;51.406;6.856;2023-10-19T11:10:06;17.10;99.90
3713;DHT22;1872;51.406;6.856;2023-10-19T11:12:32;17.10;99.90
3713;DHT22;1872;51.406;6.856;2023-10-19T11:14:59;17.10;99.90
3713;DHT22;1872;51.406;6.856;2023-10-19T11:17:27;17.20;99.90
3713;DHT22;1872;51.406;6.856;2023-10-19T11:19:56;17.20;99.90
3713;DHT22;1872;51.406;6.856;2023-10-19T11:22:26;17.30;99.90
3713;DHT22;1872;51.406;6.856;2023-10-19T11:24:53;17.30;99.90
3713;DHT22;1872;51.406;6.856;2023-10-19T11:27:26;17.30;99.90
3713;DHT22;1872;51.406;6.856;2023-10-19T11:29:56;17.30;99.90
3713;DHT22;1872;51.406;6.856;2023-10-19T11:32:22;17.30;99.90
3713;DHT22;1872;51.406;6.856;2023-10-19T11:34:56;17.30;99.90
3713;DHT22;1872;51.406;6.856;2023-10-19T11:37:22;17.30;99.90
3713;DHT22;1872;51.406;6.856;2023-10-19T11:39:48;17.30;99.90
3713;DHT22;1872;51.406;6.856;2023-10-19T11:42:18;17.30;99.90
3713;DHT22;1872;51.406;6.856;2023-10-19T11:44:44;17.30;99.90
3713;DHT22;1872;51.406;6.856;2023-10-19T11:47:10;17.20;99.90
3713;DHT22;1872;51.406;6.856;2023-10-19T11:49:36;17.20;99.90
3713;DHT22;1872;51.406;6.856;2023-10-19T11:52:05;17.10;99.90
3713;DHT22;1872;51.406;6.856;2023-10-19T11:54:33;17.10;99.90
3713;DHT22;1872;51.406;6.856;2023-10-19T11:56:59;17.10;99.90
3713;DHT22;1872;51.406;6.856;2023-10-19T11:59:25;17.10;99.90
3713;DHT22;1872;51.406;6.856;2023-10-19T12:01:52;17.10;99.90
3713;DHT22;1872;51.406;6.856;2023-10-19T12:04:17;17.10;99.90
3713;DHT22;1872;51.406;6.856;2023-10-19T12:06:44;17.10;99.90
3713;DHT22;1872;51.406;6.856;2023-10-19T12:09:11;17.10;99.90
3713;DHT22;1872;51.406;6.856;2023-10-19T12:11:41;17.20;99.90
3713;DHT22;1872;51.406;6.856;2023-10-19T12:14:06;17.20;99.90
3713;DHT22;1872;51.406;6.856;2023-10-19T12:16:37;17.20;99.90
3713;DHT22;1872;51.406;6.856;2023-10-19T12:19:05;17.30;99.90
3713;DHT22;1872;51.406;6.856;2023-10-19T12:21:33;17.30;99.90
3713;DHT22;1872;51.406;6.856;2023-10-19T12:23:59;17.30;99.90
3713;DHT22;1872;51.406;6.856;2023-10-19T12:26:26;17.40;99.90
3713;DHT22;1872;51.406;6.856;2023-10-19T12:28:52;17.40;99.90
3713;DHT22;1872;51.406;6.856;2023-10-19T12:31:18;17.50;99.90
3713;DHT22;1872;51.406;6.856;2023-10-19T12:33:44;17.50;99.90
3713;DHT22;1872;51.406;6.856;2023-10-19T12:36:10;17.50;99.90
3713;DHT22;1872;51.406;6.856;2023-10-19T12:38:48;17.50;99.90
3713;DHT22;1872;51.406;6.856;2023-10-19T12:41:14;17.50;99.90
3713;DHT22;1872;51.406;6.856;2023-10-19T12:43:40;17.60;99.90
3713;DHT22;1872;51.406;6.856;2023-10-19T12:46:07;17.60;99.90
3713;DHT22;1872;51.406;6.856;2023-10-19T12:48:34;17.60;99.90
3713;DHT22;1872;51.406;6.856;2023-10-19T12:51:01;17.60;99.90
3713;DHT22;1872;51.406;6.856;2023-10-19T12:53:28;17.60;99.90
3713;DHT22;1872;51.406;6.856;2023-10-19T12:55:55;17.60;99.90
3713;DHT22;1872;51.406;6.856;2023-10-19T12:58:21;17.60;99.90
3713;DHT22;1872;51.406;6.856;2023-10-19T13:00:47;17.50;99.90
3713;DHT22;1872;51.406;6.856;2023-10-19T13:03:15;17.50;99.90
3713;DHT22;1872;51.406;6.856;2023-10-19T13:05:42;17.60;99.90
3713;DHT22;1872;51.406;6.856;2023-10-19T13:08:14;17.50;99.90
3713;DHT22;1872;51.406;6.856;2023-10-19T13:10:41;17.50;99.90
3713;DHT22;1872;51.406;6.856;2023-10-19T13:13:09;17.50;99.90
3713;DHT22;1872;51.406;6.856;2023-10-19T13:15:39;17.40;99.90
3713;DHT22;1872;51.406;6.856;2023-10-19T13:18:07;17.40;99.90
3713;DHT22;1872;51.406;6.856;2023-10-19T13:20:36;17.40;99.90
3713;DHT22;1872;51.406;6.856;2023-10-19T13:23:04;17.40;99.90
3713;DHT22;1872;51.406;6.856;2023-10-19T13:25:33;17.40;99.90
3713;DHT22;1872;51.406;6.856;2023-10-19T13:28:18;17.30;99.90
3713;DHT22;1872;51.406;6.856;2023-10-19T13:30:49;17.30;99.90
3713;DHT22;1872;51.406;6.856;2023-10-19T13:33:17;17.30;99.90
3713;DHT22;1872;51.406;6.856;2023-10-19T13:35:44;17.20;99.90
3713;DHT22;1872;51.406;6.856;2023-10-19T13:38:11;17.20;99.90
3713;DHT22;1872;51.406;6.856;2023-10-19T13:40:39;17.20;99.90
3713;DHT22;1872;51.406;6.856;2023-10-19T13:43:06;17.10;99.90
3713;DHT22;1872;51.406;6.856;2023-10-19T13:45:36;17.10;99.90
3713;DHT22;1872;51.406;6.856;2023-10-19T13:48:06;17.10;99.90
3713;DHT22;1872;51.406;6.856;2023-10-19T13:50:34;17.10;99.90
3713;DHT22;1872;51.406;6.856;2023-10-19T13:53:01;17.10;99.90
3713;DHT22;1872;51.406;6.856;2023-10-19T13:55:28;17.10;99.90
3713;DHT22;1872;51.406;6.856;2023-10-19T13:57:54;17.10;99.90
3713;DHT22;1872;51.406;6.856;2023-10-19T14:00:23;17.10;99.90
3713;DHT22;1872;51.406;6.856;2023-10-19T14:02:51;17.10;99.90
3713;DHT22;1872;51.406;6.856;2023-10-19T14:05:17;17.10;99.90
3713;DHT22;1872;51.406;6.856;2023-10-19T14:07:44;17.10;99.90
3713;DHT22;1872;51.406;6.856;2023-10-19T14:10:10;17.10;99.90
3713;DHT22;1872;51.406;6.856;2023-10-19T14:12:41;17.10;99.90
3713;DHT22;1872;51.406;6.856;2023-10-19T14:15:13;17.10;99.90
3713;DHT22;1872;51.406;6.856;2023-10-19T14:17:42;17.10;99.90
3713;DHT22;1872;51.406;6.856;2023-10-19T14:20:08;17.20;99.90
3713;DHT22;1872;51.406;6.856;2023-10-19T14:22:44;17.20;99.90
3713;DHT22;1872;51.406;6.856;2023-10-19T14:25:11;17.10;99.90
3713;DHT22;1872;51.406;6.856;2023-10-19T14:27:40;17.10;99.90
3713;DHT22;1872;51.406;6.856;2023-10-19T14:30:08;17.10;99.90
3713;DHT22;1872;51.406;6.856;2023-10-19T14:32:37;17.10;99.90
3713;DHT22;1872;51.406;6.856;2023-10-19T14:35:06;17.10;99.90
3713;DHT22;1872;51.406;6.856;2023-10-19T14:37:35;17.10;99.90
3713;DHT22;1872;51.406;6.856;2023-10-19T14:40:02;17.10;99.90
3713;DHT22;1872;51.406;6.856;2023-10-19T14:42:29;17.10;99.90
3713;DHT22;1872;51.406;6.856;2023-10-19T14:44:58;17.00;99.90
3713;DHT22;1872;51.406;6.856;2023-10-19T14:47:25;17.00;99.90
3713;DHT22;1872;51.406;6.856;2023-10-19T14:49:52;17.00;99.90
3713;DHT22;1872;51.406;6.856;2023-10-19T14:52:18;17.00;99.90
3713;DHT22;1872;51.406;6.856;2023-10-19T14:54:47;16.90;99.90
3713;DHT22;1872;51.406;6.856;2023-10-19T14:57:14;16.90;99.90
3713;DHT22;1872;51.406;6.856;2023-10-19T14:59:39;16.90;99.90
3713;DHT22;1872;51.406;6.856;2023-10-19T15:02:06;16.80;99.90
3713;DHT22;1872;51.406;6.856;2023-10-19T15:04:37;16.80;99.90
3713;DHT22;1872;51.406;6.856;2023-10-19T15:07:03;16.80;99.90
3713;DHT22;1872;51.406;6.856;2023-10-19T15:09:29;16.70;99.90
3713;DHT22;1872;51.406;6.856;2023-10-19T15:11:55;16.80;99.90
3713;DHT22;1872;51.406;6.856;2023-10-19T15:14:21;16.80;99.90
3713;DHT22;1872;51.406;6.856;2023-10-19T15:16:47;16.80;99.90
3713;DHT22;1872;51.406;6.856;2023-10-19T15:19:12;16.80;99.90
3713;DHT22;1872;51.406;6.856;2023-10-19T15:21:40;16.70;99.90
3713;DHT22;1872;51.406;6.856;2023-10-19T15:24:07;16.70;99.90
3713;DHT22;1872;51.406;6.856;2023-10-19T15:26:33;16.70;99.90
3713;DHT22;1872;51.406;6.856;2023-10-19T15:28:59;16.70;99.90
3713;DHT22;1872;51.406;6.856;2023-10-19T15:31:24;16.70;99.90
3713;DHT22;1872;51.406;6.856;2023-10-19T15:33:50;16.60;99.90
3713;DHT22;1872;51.406;6.856;2023-10-19T15:36:16;16.70;99.90
3713;DHT22;1872;51.406;6.856;2023-10-19T15:38:42;16.70;99.90
3713;DHT22;1872;51.406;6.856;2023-10-19T15:41:08;16.60;99.90
3713;DHT22;1872;51.406;6.856;2023-10-19T15:43:36;16.60;99.90
3713;DHT22;1872;51.406;6.856;2023-10-19T15:46:02;16.60;99.90
3713;DHT22;1872;51.406;6.856;2023-10-19T15:48:31;16.60;99.90
3713;DHT22;1872;51.406;6.856;2023-10-19T15:50:58;16.60;99.90
3713;DHT22;1872;51.406;6.856;2023-10-19T15:53:24;16.60;99.90
3713;DHT22;1872;51.406;6.856;2023-10-19T15:55:52;16.60;99.90
3713;DHT22;1872;51.406;6.856;2023-10-19T15:58:18;16.60;99.90
3713;DHT22;1872;51.406;6.856;2023-10-19T16:00:46;16.50;99.90
3713;DHT22;1872;51.406;6.856;2023-10-19T16:03:12;16.50;99.90
3713;DHT22;1872;51.406;6.856;2023-10-19T16:05:39;16.50;99.90
3713;DHT22;1872;51.406;6.856;2023-10-19T16:08:06;16.50;99.90
3713;DHT22;1872;51.406;6.856;2023-10-19T16:10:31;16.50;99.90
3713;DHT22;1872;51.406;6.856;2023-10-19T16:12:57;16.40;99.90
3713;DHT22;1872;51.406;6.856;2023-10-19T16:15:23;16.40;99.90
3713;DHT22;1872;51.406;6.856;2023-10-19T16:17:48;16.40;99.90
3713;DHT22;1872;51.406;6.856;2023-10-19T16:20:16;16.40;99.90
3713;DHT22;1872;51.406;6.856;2023-10-19T16:22:42;16.30;99.90